Airfield :
LOGIN :

Register | Disclaimer

   EN    FR    IT 

 










Legend :    VFR   Marginal VFR   IFR   Intensive IFR   Very Intensive IFR
Visi :
Ceiling :
>= 8 km
>= 3000ft
5 to 8 km
1000 to 3000 ft
1500m to 5 km
500 to 1000 ft
800 to 1500m
200 to 500 ft
< 800m
< 200 ft
Symbols :   Thunderstorms  Fog  Heavy snow  Heavy precipitations  Wind > 20 kt
SIGMETs :     Misc.  Thunderstorms  Icing  Turbulence  Mountain Waves  Volcanic Ashes






- Airport Elevation : 405 ft
- IATA code : ODH


EGVO - RAF Odiham

CURRENT METAR :
  • 172023Z 16009KT 9999 FEW026 10/09 Q1003 NOSIG RMK BLU BLU

EXPIRED METARs :
  • 171950Z 15008KT CAVOK 10/09 Q1003 NOSIG RMK BLU BLU
  • 171920Z 16008KT CAVOK 10/09 Q1003 NOSIG RMK BLU BLU
  • 171850Z 17009KT 9999 FEW020 10/10 Q1003 NOSIG RMK BLU BLU
  • 171824Z 17008KT 9999 FEW025 SCT050 11/10 Q1003 TEMPO SCT020CB RMK BLU TEMPO WHT
  • 171750Z 18010KT 9999 VCSH FEW020 SCT060 11/10 Q1003 NOSIG RMK BLU BLU
  • 171720Z 18011KT 9999 -SHRA SCT020CB SCT050 11/10 Q1003 TEMPO 5000 -SHRA RMK WHT TEMPO WHT

TAF TAF EGVO
Valid from the 17 at 18:00 until the 18 at 06:00 UTC


171615Z 1718/1806 20012KT 9999 SCT040
TEMPO 1718/1806 7000 -SHRA SCT020
PROB30
TEMPO 1718/1723 18016G26KT 4000 SHRA BKN014CB
PROB40
TEMPO 1723/1806 3000 +SHRA SCT010 BKN014CB



MET'MAP, your aeronautical weather chart ! - Copyright ORBIFLY December 2007 - Disclaimer

ORBIFLY MET'MAP TEAM :

Programming & Development : Alexandra Zaïnal
Concept & Development : Baudouin d'Aumeries
Co-Development & Prog : Marc-Olivier Méhu
Technical & hardware support : Manuel Goepfert

Contact : metmap@orbifly.com




SOURCES & CREDITS :

   NOAA